sensor_id;sensor_type;location;lat;lon;timestamp;pressure;altitude;pressure_sealevel;temperature;humidity
4012;BME280;2020;48.682;9.024;2022-12-18T00:01:23;97427.31;;;-11.86;76.35
4012;BME280;2020;48.682;9.024;2022-12-18T00:03:50;97419.81;;;-11.81;75.97
4012;BME280;2020;48.682;9.024;2022-12-18T00:06:16;97421.50;;;-11.83;75.54
4012;BME280;2020;48.682;9.024;2022-12-18T00:08:42;97424.00;;;-11.79;76.21
4012;BME280;2020;48.682;9.024;2022-12-18T00:11:10;97421.53;;;-11.74;75.40
4012;BME280;2020;48.682;9.024;2022-12-18T00:13:37;97413.97;;;-11.76;75.10
4012;BME280;2020;48.682;9.024;2022-12-18T00:16:07;97412.25;;;-11.89;75.38
4012;BME280;2020;48.682;9.024;2022-12-18T00:18:33;97418.97;;;-11.79;75.47
4012;BME280;2020;48.682;9.024;2022-12-18T00:21:00;97426.47;;;-11.88;74.56
4012;BME280;2020;48.682;9.024;2022-12-18T00:23:27;97413.94;;;-11.85;75.34
4012;BME280;2020;48.682;9.024;2022-12-18T00:25:52;97415.63;;;-11.84;75.66
4012;BME280;2020;48.682;9.024;2022-12-18T00:28:17;97425.63;;;-11.90;74.59
4012;BME280;2020;48.682;9.024;2022-12-18T00:30:42;97423.13;;;-11.93;75.76
4012;BME280;2020;48.682;9.024;2022-12-18T00:33:08;97423.13;;;-11.90;75.60
4012;BME280;2020;48.682;9.024;2022-12-18T00:35:33;97430.66;;;-11.90;74.96
4012;BME280;2020;48.682;9.024;2022-12-18T00:37:58;97425.63;;;-11.93;76.05
4012;BME280;2020;48.682;9.024;2022-12-18T00:40:23;97430.63;;;-11.99;75.20
4012;BME280;2020;48.682;9.024;2022-12-18T00:42:49;97431.47;;;-12.03;75.47
4012;BME280;2020;48.682;9.024;2022-12-18T00:45:25;97428.91;;;-12.16;75.66
4012;BME280;2020;48.682;9.024;2022-12-18T00:47:51;97425.56;;;-12.15;75.84
4012;BME280;2020;48.682;9.024;2022-12-18T00:50:16;97427.19;;;-12.26;77.29
4012;BME280;2020;48.682;9.024;2022-12-18T00:52:42;97431.41;;;-12.19;77.09
4012;BME280;2020;48.682;9.024;2022-12-18T00:55:07;97432.25;;;-12.17;76.89
4012;BME280;2020;48.682;9.024;2022-12-18T00:57:33;97439.78;;;-12.17;77.31
4012;BME280;2020;48.682;9.024;2022-12-18T00:59:58;97443.19;;;-12.09;77.08
4012;BME280;2020;48.682;9.024;2022-12-18T01:02:23;97442.28;;;-12.23;75.83
4012;BME280;2020;48.682;9.024;2022-12-18T01:04:49;97440.59;;;-12.24;76.63
4012;BME280;2020;48.682;9.024;2022-12-18T01:07:14;97437.25;;;-12.18;76.62
4012;BME280;2020;48.682;9.024;2022-12-18T01:09:39;97437.25;;;-12.20;76.95
4012;BME280;2020;48.682;9.024;2022-12-18T01:12:05;97437.25;;;-12.23;76.89
4012;BME280;2020;48.682;9.024;2022-12-18T01:14:30;97430.56;;;-12.24;76.52
4012;BME280;2020;48.682;9.024;2022-12-18T01:16:55;97433.91;;;-12.22;76.22
4012;BME280;2020;48.682;9.024;2022-12-18T01:19:21;97428.06;;;-12.21;75.84
4012;BME280;2020;48.682;9.024;2022-12-18T01:21:46;97422.19;;;-12.23;76.16
4012;BME280;2020;48.682;9.024;2022-12-18T01:24:11;97432.25;;;-12.18;76.24
4012;BME280;2020;48.682;9.024;2022-12-18T01:26:37;97430.59;;;-12.18;75.91
4012;BME280;2020;48.682;9.024;2022-12-18T01:29:02;97429.72;;;-12.18;75.42
4012;BME280;2020;48.682;9.024;2022-12-18T01:31:30;97436.38;;;-12.28;78.31
4012;BME280;2020;48.682;9.024;2022-12-18T01:33:56;97424.59;;;-12.45;79.50
4012;BME280;2020;48.682;9.024;2022-12-18T01:36:24;97425.41;;;-12.46;78.84
4012;BME280;2020;48.682;9.024;2022-12-18T01:38:51;97435.50;;;-12.40;77.98
4012;BME280;2020;48.682;9.024;2022-12-18T01:41:18;97440.53;;;-12.33;78.11
4012;BME280;2020;48.682;9.024;2022-12-18T01:46:16;97439.69;;;-12.36;77.72
4012;BME280;2020;48.682;9.024;2022-12-18T01:48:47;97442.16;;;-12.42;77.54
4012;BME280;2020;48.682;9.024;2022-12-18T01:51:13;97427.16;;;-12.36;77.91
4012;BME280;2020;48.682;9.024;2022-12-18T01:53:41;97438.91;;;-12.28;78.91
4012;BME280;2020;48.682;9.024;2022-12-18T01:56:08;97433.06;;;-12.20;78.70
4012;BME280;2020;48.682;9.024;2022-12-18T01:58:45;97428.06;;;-12.16;78.71
4012;BME280;2020;48.682;9.024;2022-12-18T02:01:11;97420.56;;;-12.15;78.98
4012;BME280;2020;48.682;9.024;2022-12-18T02:03:36;97420.56;;;-12.10;79.96
4012;BME280;2020;48.682;9.024;2022-12-18T02:16:50;97429.06;;;-11.60;81.74
4012;BME280;2020;48.682;9.024;2022-12-18T02:24:57;97424.91;;;-11.53;81.58
4012;BME280;2020;48.682;9.024;2022-12-18T02:27:24;97428.25;;;-11.53;81.12
4012;BME280;2020;48.682;9.024;2022-12-18T02:29:51;97439.97;;;-11.52;81.01
4012;BME280;2020;48.682;9.024;2022-12-18T02:32:25;97440.81;;;-11.56;82.35
4012;BME280;2020;48.682;9.024;2022-12-18T02:34:54;97450.03;;;-11.49;83.46
4012;BME280;2020;48.682;9.024;2022-12-18T02:37:22;97449.19;;;-11.57;81.61
4012;BME280;2020;48.682;9.024;2022-12-18T02:39:49;97449.19;;;-11.57;81.58
4012;BME280;2020;48.682;9.024;2022-12-18T02:42:16;97454.19;;;-11.60;82.18
4012;BME280;2020;48.682;9.024;2022-12-18T02:44:51;97450.84;;;-11.70;81.88
4012;BME280;2020;48.682;9.024;2022-12-18T02:47:18;97455.00;;;-11.70;82.02
4012;BME280;2020;48.682;9.024;2022-12-18T02:55:47;97457.44;;;-11.89;81.98
4012;BME280;2020;48.682;9.024;2022-12-18T03:03:46;97449.13;;;-11.72;84.70
4012;BME280;2020;48.682;9.024;2022-12-18T03:06:21;97440.78;;;-11.68;86.63
4012;BME280;2020;48.682;9.024;2022-12-18T03:08:52;97439.94;;;-11.70;90.32
4012;BME280;2020;48.682;9.024;2022-12-18T03:11:19;97447.47;;;-11.67;91.53
4012;BME280;2020;48.682;9.024;2022-12-18T03:14:06;97459.19;;;-11.69;91.61
4012;BME280;2020;48.682;9.024;2022-12-18T03:16:33;97459.22;;;-11.66;92.24
4012;BME280;2020;48.682;9.024;2022-12-18T03:19:04;97455.88;;;-11.62;91.39
4012;BME280;2020;48.682;9.024;2022-12-18T03:21:40;97454.19;;;-11.60;90.45
4012;BME280;2020;48.682;9.024;2022-12-18T03:24:08;97467.59;;;-11.58;92.25
4012;BME280;2020;48.682;9.024;2022-12-18T03:26:34;97468.47;;;-11.57;92.80
4012;BME280;2020;48.682;9.024;2022-12-18T03:29:24;97471.78;;;-11.60;93.27
4012;BME280;2020;48.682;9.024;2022-12-18T03:31:56;97469.28;;;-11.57;93.07
4012;BME280;2020;48.682;9.024;2022-12-18T03:34:34;97470.97;;;-11.56;93.65
4012;BME280;2020;48.682;9.024;2022-12-18T03:37:00;97462.56;;;-11.64;92.08
4012;BME280;2020;48.682;9.024;2022-12-18T03:39:26;97457.56;;;-11.52;92.15
4012;BME280;2020;48.682;9.024;2022-12-18T03:42:12;97457.56;;;-11.52;92.18
4012;BME280;2020;48.682;9.024;2022-12-18T03:44:43;97457.59;;;-11.42;92.65
4012;BME280;2020;48.682;9.024;2022-12-18T03:47:54;97464.28;;;-11.51;92.40
4012;BME280;2020;48.682;9.024;2022-12-18T03:50:20;97460.94;;;-11.50;91.52
4012;BME280;2020;48.682;9.024;2022-12-18T03:53:00;97459.25;;;-11.44;91.56
4012;BME280;2020;48.682;9.024;2022-12-18T03:55:31;97454.22;;;-11.57;89.37
4012;BME280;2020;48.682;9.024;2022-12-18T03:57:59;97460.09;;;-11.50;89.27
4012;BME280;2020;48.682;9.024;2022-12-18T04:00:27;97461.78;;;-11.52;88.58
4012;BME280;2020;48.682;9.024;2022-12-18T04:02:54;97455.88;;;-11.62;88.28
4012;BME280;2020;48.682;9.024;2022-12-18T04:05:22;97450.00;;;-11.67;87.75
4012;BME280;2020;48.682;9.024;2022-12-18T04:07:49;97460.88;;;-11.65;87.56
4012;BME280;2020;48.682;9.024;2022-12-18T04:10:16;97455.88;;;-11.59;90.02
4012;BME280;2020;48.682;9.024;2022-12-18T04:12:42;97459.22;;;-11.66;90.92
4012;BME280;2020;48.682;9.024;2022-12-18T04:15:08;97458.38;;;-11.68;92.99
4012;BME280;2020;48.682;9.024;2022-12-18T04:17:34;97465.06;;;-11.67;93.17
4012;BME280;2020;48.682;9.024;2022-12-18T04:19:59;97459.19;;;-11.69;91.75
4012;BME280;2020;48.682;9.024;2022-12-18T04:22:24;97464.25;;;-11.63;92.49
4012;BME280;2020;48.682;9.024;2022-12-18T04:24:49;97455.88;;;-11.62;90.32
4012;BME280;2020;48.682;9.024;2022-12-18T04:27:15;97455.88;;;-11.56;89.15
4012;BME280;2020;48.682;9.024;2022-12-18T04:29:40;97471.78;;;-11.60;88.38
4012;BME280;2020;48.682;9.024;2022-12-18T04:32:05;97485.19;;;-11.61;92.55
4012;BME280;2020;48.682;9.024;2022-12-18T04:34:31;97479.34;;;-11.54;91.87
4012;BME280;2020;48.682;9.024;2022-12-18T04:36:57;97470.97;;;-11.56;91.57
4012;BME280;2020;48.682;9.024;2022-12-18T04:39:22;97470.94;;;-11.65;91.32
4012;BME280;2020;48.682;9.024;2022-12-18T04:41:47;97475.16;;;-11.63;91.23
4012;BME280;2020;48.682;9.024;2022-12-18T04:44:13;97484.34;;;-11.68;90.88
4012;BME280;2020;48.682;9.024;2022-12-18T04:46:38;97474.28;;;-11.69;91.63
4012;BME280;2020;48.682;9.024;2022-12-18T04:49:03;97469.25;;;-11.63;91.89
4012;BME280;2020;48.682;9.024;2022-12-18T04:51:29;97462.56;;;-11.67;89.99
4012;BME280;2020;48.682;9.024;2022-12-18T04:53:54;97460.00;;;-11.77;88.38
4012;BME280;2020;48.682;9.024;2022-12-18T04:56:20;97445.75;;;-11.81;88.65
4012;BME280;2020;48.682;9.024;2022-12-18T04:58:45;97444.09;;;-11.76;88.16
4012;BME280;2020;48.682;9.024;2022-12-18T05:01:12;97449.13;;;-11.72;86.96
4012;BME280;2020;48.682;9.024;2022-12-18T05:03:38;97450.81;;;-11.68;85.77
4012;BME280;2020;48.682;9.024;2022-12-18T05:06:05;97444.13;;;-11.72;85.46
4012;BME280;2020;48.682;9.024;2022-12-18T05:08:31;97454.97;;;-11.80;84.73
4012;BME280;2020;48.682;9.024;2022-12-18T05:11:03;97455.78;;;-11.84;84.92
4012;BME280;2020;48.682;9.024;2022-12-18T05:13:29;97460.78;;;-11.90;84.51
4012;BME280;2020;48.682;9.024;2022-12-18T05:15:55;97451.53;;;-12.05;87.79
4012;BME280;2020;48.682;9.024;2022-12-18T05:18:21;97457.38;;;-12.11;88.80
4012;BME280;2020;48.682;9.024;2022-12-18T05:20:46;97458.22;;;-12.10;90.47
4012;BME280;2020;48.682;9.024;2022-12-18T05:23:12;97454.84;;;-12.17;90.96
4012;BME280;2020;48.682;9.024;2022-12-18T05:25:37;97454.84;;;-12.15;91.53
4012;BME280;2020;48.682;9.024;2022-12-18T05:28:03;97462.41;;;-12.11;91.43
4012;BME280;2020;48.682;9.024;2022-12-18T05:30:28;97466.59;;;-12.10;91.61
4012;BME280;2020;48.682;9.024;2022-12-18T05:32:53;97460.78;;;-12.01;89.69
4012;BME280;2020;48.682;9.024;2022-12-18T05:35:19;97470.78;;;-12.09;88.77
4012;BME280;2020;48.682;9.024;2022-12-18T05:37:44;97475.81;;;-11.99;90.73
4012;BME280;2020;48.682;9.024;2022-12-18T05:40:10;97475.00;;;-12.01;91.79
4012;BME280;2020;48.682;9.024;2022-12-18T05:42:36;97471.66;;;-12.02;91.68
4012;BME280;2020;48.682;9.024;2022-12-18T05:45:01;97470.78;;;-12.09;89.85
4012;BME280;2020;48.682;9.024;2022-12-18T05:47:27;97464.06;;;-12.13;88.93
4012;BME280;2020;48.682;9.024;2022-12-18T05:49:52;97466.56;;;-12.11;88.46
4012;BME280;2020;48.682;9.024;2022-12-18T05:52:17;97465.75;;;-12.15;87.89
4012;BME280;2020;48.682;9.024;2022-12-18T05:54:43;97460.72;;;-12.12;86.32
4012;BME280;2020;48.682;9.024;2022-12-18T05:57:08;97447.31;;;-12.17;86.40
4012;BME280;2020;48.682;9.024;2022-12-18T05:59:33;97449.00;;;-12.16;86.38
4012;BME280;2020;48.682;9.024;2022-12-18T06:01:59;97455.72;;;-12.09;85.08
4012;BME280;2020;48.682;9.024;2022-12-18T06:04:26;97454.00;;;-12.14;84.10
4012;BME280;2020;48.682;9.024;2022-12-18T06:06:52;97459.88;;;-12.14;86.18
4012;BME280;2020;48.682;9.024;2022-12-18T06:09:17;97460.72;;;-12.15;85.09
4012;BME280;2020;48.682;9.024;2022-12-18T06:11:42;97459.03;;;-12.16;84.85
4012;BME280;2020;48.682;9.024;2022-12-18T06:14:09;97465.69;;;-12.24;84.18
4012;BME280;2020;48.682;9.024;2022-12-18T06:16:34;97472.44;;;-12.17;83.71
4012;BME280;2020;48.682;9.024;2022-12-18T06:19:01;97480.78;;;-12.18;83.41
4012;BME280;2020;48.682;9.024;2022-12-18T06:21:27;97480.75;;;-12.20;83.40
4012;BME280;2020;48.682;9.024;2022-12-18T06:23:53;97490.78;;;-12.24;82.21
4012;BME280;2020;48.682;9.024;2022-12-18T06:26:18;97487.44;;;-12.26;81.97
4012;BME280;2020;48.682;9.024;2022-12-18T06:28:44;97483.97;;;-12.44;82.56
4012;BME280;2020;48.682;9.024;2022-12-18T06:31:09;97489.03;;;-12.41;83.36
4012;BME280;2020;48.682;9.024;2022-12-18T06:33:35;97490.66;;;-12.46;83.04
4012;BME280;2020;48.682;9.024;2022-12-18T06:36:03;97490.69;;;-12.43;83.18
4012;BME280;2020;48.682;9.024;2022-12-18T06:38:29;97494.03;;;-12.41;82.98
4012;BME280;2020;48.682;9.024;2022-12-18T06:40:54;97492.34;;;-12.45;81.71
4012;BME280;2020;48.682;9.024;2022-12-18T06:43:20;97493.09;;;-12.54;81.87
4012;BME280;2020;48.682;9.024;2022-12-18T06:45:45;97493.13;;;-12.52;82.09
4012;BME280;2020;48.682;9.024;2022-12-18T06:48:14;97499.00;;;-12.50;81.46
4012;BME280;2020;48.682;9.024;2022-12-18T06:50:42;97488.97;;;-12.50;82.14
4012;BME280;2020;48.682;9.024;2022-12-18T06:53:07;97492.34;;;-12.45;81.87
4012;BME280;2020;48.682;9.024;2022-12-18T06:55:32;97497.34;;;-12.48;80.72
4012;BME280;2020;48.682;9.024;2022-12-18T06:57:57;97498.00;;;-12.69;81.85
4012;BME280;2020;48.682;9.024;2022-12-18T07:00:23;97507.19;;;-12.70;82.44
4012;BME280;2020;48.682;9.024;2022-12-18T07:02:48;97520.69;;;-12.58;82.61
4012;BME280;2020;48.682;9.024;2022-12-18T07:05:13;97520.72;;;-12.52;81.67
4012;BME280;2020;48.682;9.024;2022-12-18T07:07:38;97527.38;;;-12.57;81.11
4012;BME280;2020;48.682;9.024;2022-12-18T07:10:04;97522.38;;;-12.54;81.14
4012;BME280;2020;48.682;9.024;2022-12-18T07:12:29;97530.66;;;-12.61;81.13
4012;BME280;2020;48.682;9.024;2022-12-18T07:14:55;97536.50;;;-12.63;82.24
4012;BME280;2020;48.682;9.024;2022-12-18T07:17:20;97526.50;;;-12.59;82.24
4012;BME280;2020;48.682;9.024;2022-12-18T07:19:45;97527.38;;;-12.53;81.87
4012;BME280;2020;48.682;9.024;2022-12-18T07:22:10;97524.09;;;-12.50;81.01
4012;BME280;2020;48.682;9.024;2022-12-18T07:24:36;97530.78;;;-12.49;81.06
4012;BME280;2020;48.682;9.024;2022-12-18T07:27:01;97532.47;;;-12.48;80.99
4012;BME280;2020;48.682;9.024;2022-12-18T07:29:26;97527.53;;;-12.36;81.06
4012;BME280;2020;48.682;9.024;2022-12-18T07:31:52;97525.88;;;-12.30;81.47
4012;BME280;2020;48.682;9.024;2022-12-18T07:34:17;97534.28;;;-12.28;82.24
4012;BME280;2020;48.682;9.024;2022-12-18T07:36:42;97528.34;;;-12.35;81.64
4012;BME280;2020;48.682;9.024;2022-12-18T07:39:08;97523.41;;;-12.26;82.05
4012;BME280;2020;48.682;9.024;2022-12-18T07:41:33;97521.00;;;-12.09;82.36
4012;BME280;2020;48.682;9.024;2022-12-18T07:43:58;97522.81;;;-11.77;83.91
4012;BME280;2020;48.682;9.024;2022-12-18T07:46:24;97528.00;;;-11.33;82.67
4012;BME280;2020;48.682;9.024;2022-12-18T07:48:49;97535.63;;;-11.08;82.58
4012;BME280;2020;48.682;9.024;2022-12-18T07:51:14;97533.97;;;-10.91;81.52
4012;BME280;2020;48.682;9.024;2022-12-18T07:53:40;97535.66;;;-10.73;80.99
4012;BME280;2020;48.682;9.024;2022-12-18T07:56:08;97533.16;;;-10.68;79.33
4012;BME280;2020;48.682;9.024;2022-12-18T07:58:34;97534.00;;;-10.47;80.51
4012;BME280;2020;48.682;9.024;2022-12-18T08:01:10;97531.44;;;-10.19;79.69
4012;BME280;2020;48.682;9.024;2022-12-18T08:03:37;97537.31;;;-10.13;80.00
4012;BME280;2020;48.682;9.024;2022-12-18T08:06:04;97534.78;;;-9.89;78.42
4012;BME280;2020;48.682;9.024;2022-12-18T08:08:30;97540.59;;;-9.72;77.81
4012;BME280;2020;48.682;9.024;2022-12-18T08:10:55;97536.28;;;-9.42;77.30
4012;BME280;2020;48.682;9.024;2022-12-18T08:13:21;97525.31;;;-9.31;77.03
4012;BME280;2020;48.682;9.024;2022-12-18T08:15:55;97537.78;;;-9.03;77.57
4012;BME280;2020;48.682;9.024;2022-12-18T08:18:20;97541.91;;;-8.88;77.60
4012;BME280;2020;48.682;9.024;2022-12-18T08:20:46;97535.88;;;-8.70;76.50
4012;BME280;2020;48.682;9.024;2022-12-18T08:23:11;97537.31;;;-8.38;76.17
4012;BME280;2020;48.682;9.024;2022-12-18T08:25:36;97533.88;;;-8.28;76.75
4012;BME280;2020;48.682;9.024;2022-12-18T08:28:01;97532.06;;;-8.13;75.94
4012;BME280;2020;48.682;9.024;2022-12-18T08:30:27;97537.03;;;-8.04;76.88
4012;BME280;2020;48.682;9.024;2022-12-18T08:32:52;97536.81;;;-7.82;77.99
4012;BME280;2020;48.682;9.024;2022-12-18T08:35:19;97543.16;;;-7.47;78.10
4012;BME280;2020;48.682;9.024;2022-12-18T08:37:44;97539.75;;;-7.43;78.21
4012;BME280;2020;48.682;9.024;2022-12-18T08:40:09;97538.00;;;-7.38;77.44
4012;BME280;2020;48.682;9.024;2022-12-18T08:42:35;97538.41;;;-7.03;77.61
4012;BME280;2020;48.682;9.024;2022-12-18T08:45:18;97537.38;;;-6.88;77.24
4012;BME280;2020;48.682;9.024;2022-12-18T08:47:44;97535.53;;;-6.77;76.39
4012;BME280;2020;48.682;9.024;2022-12-18T08:50:09;97530.03;;;-6.49;76.31
4012;BME280;2020;48.682;9.024;2022-12-18T08:52:36;97527.56;;;-6.52;76.55
4012;BME280;2020;48.682;9.024;2022-12-18T08:55:01;97534.88;;;-6.33;76.62
4012;BME280;2020;48.682;9.024;2022-12-18T08:57:26;97535.34;;;-6.11;75.79
4012;BME280;2020;48.682;9.024;2022-12-18T08:59:52;97522.25;;;-5.89;76.43
4012;BME280;2020;48.682;9.024;2022-12-18T09:04:49;97523.63;;;-5.71;75.38
4012;BME280;2020;48.682;9.024;2022-12-18T09:07:14;97525.31;;;-5.70;75.85
4012;BME280;2020;48.682;9.024;2022-12-18T09:09:40;97515.31;;;-5.35;76.07
4012;BME280;2020;48.682;9.024;2022-12-18T09:12:05;97514.19;;;-5.20;74.61
4012;BME280;2020;48.682;9.024;2022-12-18T09:14:30;97520.25;;;-4.88;75.30
4012;BME280;2020;48.682;9.024;2022-12-18T09:16:56;97519.44;;;-5.30;75.17
4012;BME280;2020;48.682;9.024;2022-12-18T09:19:21;97508.84;;;-5.08;75.00
4012;BME280;2020;48.682;9.024;2022-12-18T09:21:46;97498.28;;;-4.89;74.83
4012;BME280;2020;48.682;9.024;2022-12-18T09:24:13;97501.97;;;-4.65;74.08
4012;BME280;2020;48.682;9.024;2022-12-18T09:26:38;97505.50;;;-5.10;75.58
4012;BME280;2020;48.682;9.024;2022-12-18T09:29:04;97505.88;;;-4.89;75.78
4012;BME280;2020;48.682;9.024;2022-12-18T09:31:29;97507.34;;;-4.79;76.38
4012;BME280;2020;48.682;9.024;2022-12-18T09:33:55;97502.78;;;-4.64;75.24
4012;BME280;2020;48.682;9.024;2022-12-18T09:36:21;97504.69;;;-4.36;74.25
4012;BME280;2020;48.682;9.024;2022-12-18T09:38:46;97498.34;;;-4.20;74.43
4012;BME280;2020;48.682;9.024;2022-12-18T09:43:59;97502.97;;;-4.01;73.58
4012;BME280;2020;48.682;9.024;2022-12-18T09:46:33;97504.78;;;-4.06;73.74
4012;BME280;2020;48.682;9.024;2022-12-18T09:49:01;97503.13;;;-4.07;73.91
4012;BME280;2020;48.682;9.024;2022-12-18T09:51:33;97494.84;;;-4.16;73.91
4012;BME280;2020;48.682;9.024;2022-12-18T09:54:03;97499.56;;;-4.00;74.70
4012;BME280;2020;48.682;9.024;2022-12-18T09:56:35;97500.41;;;-3.68;73.70
4012;BME280;2020;48.682;9.024;2022-12-18T09:59:03;97501.97;;;-3.62;72.61
4012;BME280;2020;48.682;9.024;2022-12-18T10:01:29;97506.56;;;-3.45;73.41
4012;BME280;2020;48.682;9.024;2022-12-18T10:03:55;97513.59;;;-3.54;72.56
4012;BME280;2020;48.682;9.024;2022-12-18T10:06:32;97510.56;;;-3.68;73.04
4012;BME280;2020;48.682;9.024;2022-12-18T10:11:47;97503.09;;;-3.13;72.30
4012;BME280;2020;48.682;9.024;2022-12-18T10:14:30;97511.59;;;-3.12;72.54
4012;BME280;2020;48.682;9.024;2022-12-18T10:17:26;97508.13;;;-2.81;71.36
4012;BME280;2020;48.682;9.024;2022-12-18T10:20:11;97512.47;;;-3.13;71.97
4012;BME280;2020;48.682;9.024;2022-12-18T10:25:40;97502.47;;;-2.62;71.31
4012;BME280;2020;48.682;9.024;2022-12-18T10:28:10;97507.19;;;-2.79;71.08
4012;BME280;2020;48.682;9.024;2022-12-18T10:30:38;97512.72;;;-2.92;71.19
4012;BME280;2020;48.682;9.024;2022-12-18T10:33:04;97503.94;;;-2.55;72.54
4012;BME280;2020;48.682;9.024;2022-12-18T10:35:30;97501.38;;;-2.82;71.10
4012;BME280;2020;48.682;9.024;2022-12-18T10:43:33;97500.88;;;-3.24;72.61
4012;BME280;2020;48.682;9.024;2022-12-18T10:48:35;97508.16;;;-3.11;73.10
4012;BME280;2020;48.682;9.024;2022-12-18T10:51:02;97506.41;;;-3.09;73.98
4012;BME280;2020;48.682;9.024;2022-12-18T10:53:29;97510.19;;;-2.94;73.06
4012;BME280;2020;48.682;9.024;2022-12-18T10:55:58;97509.22;;;-3.18;73.23
4012;BME280;2020;48.682;9.024;2022-12-18T10:58:31;97508.88;;;-3.06;73.52
4012;BME280;2020;48.682;9.024;2022-12-18T11:03:45;97489.69;;;-2.89;72.78
4012;BME280;2020;48.682;9.024;2022-12-18T11:06:13;97484.88;;;-2.99;73.61
4012;BME280;2020;48.682;9.024;2022-12-18T11:08:40;97484.31;;;-2.80;72.83
4012;BME280;2020;48.682;9.024;2022-12-18T11:11:20;97477.16;;;-2.69;73.06
4012;BME280;2020;48.682;9.024;2022-12-18T11:16:26;97480.50;;;-3.24;73.34
4012;BME280;2020;48.682;9.024;2022-12-18T11:18:51;97480.44;;;-3.20;73.24
4012;BME280;2020;48.682;9.024;2022-12-18T11:21:17;97471.50;;;-2.79;72.47
4012;BME280;2020;48.682;9.024;2022-12-18T11:23:50;97475.69;;;-2.49;71.87
4012;BME280;2020;48.682;9.024;2022-12-18T11:26:16;97480.50;;;-2.67;71.24
4012;BME280;2020;48.682;9.024;2022-12-18T11:28:51;97474.47;;;-2.64;71.35
4012;BME280;2020;48.682;9.024;2022-12-18T11:33:51;97471.38;;;-2.47;71.15
4012;BME280;2020;48.682;9.024;2022-12-18T11:36:18;97470.69;;;-2.79;72.16
4012;BME280;2020;48.682;9.024;2022-12-18T11:38:45;97473.25;;;-2.52;72.36
4012;BME280;2020;48.682;9.024;2022-12-18T11:41:33;97453.69;;;-2.26;70.47
4012;BME280;2020;48.682;9.024;2022-12-18T11:44:23;97455.94;;;-2.69;73.42
4012;BME280;2020;48.682;9.024;2022-12-18T11:46:55;97456.81;;;-2.18;71.81
4012;BME280;2020;48.682;9.024;2022-12-18T11:49:34;97457.50;;;-2.13;70.15
4012;BME280;2020;48.682;9.024;2022-12-18T11:54:33;97451.03;;;-2.23;71.51
4012;BME280;2020;48.682;9.024;2022-12-18T11:57:11;97445.91;;;-1.96;70.81
4012;BME280;2020;48.682;9.024;2022-12-18T11:59:56;97449.25;;;-1.94;70.17
4012;BME280;2020;48.682;9.024;2022-12-18T12:07:51;97444.50;;;-2.57;72.16
4012;BME280;2020;48.682;9.024;2022-12-18T12:16:18;97438.72;;;-2.89;73.04
4012;BME280;2020;48.682;9.024;2022-12-18T12:19:06;97427.44;;;-3.09;74.43
4012;BME280;2020;48.682;9.024;2022-12-18T12:21:40;97429.78;;;-3.30;73.85
4012;BME280;2020;48.682;9.024;2022-12-18T12:27:12;97423.44;;;-2.89;74.20
4012;BME280;2020;48.682;9.024;2022-12-18T12:30:06;97421.97;;;-2.70;73.53
4012;BME280;2020;48.682;9.024;2022-12-18T12:32:43;97428.25;;;-3.09;74.00
4012;BME280;2020;48.682;9.024;2022-12-18T12:38:15;97418.06;;;-2.80;74.60
4012;BME280;2020;48.682;9.024;2022-12-18T12:40:47;97434.31;;;-2.84;74.05
4012;BME280;2020;48.682;9.024;2022-12-18T12:43:41;97435.78;;;-2.77;73.91
4012;BME280;2020;48.682;9.024;2022-12-18T12:46:13;97435.47;;;-3.21;75.19
4012;BME280;2020;48.682;9.024;2022-12-18T12:48:52;97441.06;;;-3.10;74.86
4012;BME280;2020;48.682;9.024;2022-12-18T12:53:44;97441.88;;;-3.10;74.16
4012;BME280;2020;48.682;9.024;2022-12-18T12:56:12;97445.03;;;-3.01;74.09
4012;BME280;2020;48.682;9.024;2022-12-18T13:04:21;97451.72;;;-3.26;75.67
4012;BME280;2020;48.682;9.024;2022-12-18T13:07:05;97453.38;;;-2.96;74.97
4012;BME280;2020;48.682;9.024;2022-12-18T13:09:33;97449.41;;;-2.51;74.39
4012;BME280;2020;48.682;9.024;2022-12-18T13:12:04;97459.63;;;-2.51;74.36
4012;BME280;2020;48.682;9.024;2022-12-18T13:15:12;97459.50;;;-2.48;74.05
4012;BME280;2020;48.682;9.024;2022-12-18T13:17:38;97450.38;;;-2.54;74.53
4012;BME280;2020;48.682;9.024;2022-12-18T13:20:07;97449.28;;;-2.46;74.02
4012;BME280;2020;48.682;9.024;2022-12-18T13:22:39;97441.69;;;-2.75;75.28
4012;BME280;2020;48.682;9.024;2022-12-18T13:28:11;97441.56;;;-2.72;76.48
4012;BME280;2020;48.682;9.024;2022-12-18T13:48:17;97424.31;;;-2.63;77.83
4012;BME280;2020;48.682;9.024;2022-12-18T13:50:49;97425.88;;;-2.59;77.95
4012;BME280;2020;48.682;9.024;2022-12-18T13:53:21;97418.03;;;-2.53;77.76
4012;BME280;2020;48.682;9.024;2022-12-18T13:55:47;97419.72;;;-2.79;78.96
4012;BME280;2020;48.682;9.024;2022-12-18T13:58:14;97422.75;;;-2.68;78.69
4012;BME280;2020;48.682;9.024;2022-12-18T14:00:43;97431.47;;;-2.75;78.10
4012;BME280;2020;48.682;9.024;2022-12-18T14:03:23;97438.13;;;-2.98;79.58
4012;BME280;2020;48.682;9.024;2022-12-18T14:06:11;97432.81;;;-3.18;79.90
4012;BME280;2020;48.682;9.024;2022-12-18T14:08:39;97433.91;;;-3.27;80.50
4012;BME280;2020;48.682;9.024;2022-12-18T14:11:07;97433.53;;;-3.43;81.34
4012;BME280;2020;48.682;9.024;2022-12-18T14:13:43;97437.03;;;-3.47;81.75
4012;BME280;2020;48.682;9.024;2022-12-18T14:16:14;97428.25;;;-3.37;81.33
4012;BME280;2020;48.682;9.024;2022-12-18T14:18:52;97435.28;;;-3.45;82.01
4012;BME280;2020;48.682;9.024;2022-12-18T14:21:22;97430.09;;;-3.42;81.59
4012;BME280;2020;48.682;9.024;2022-12-18T14:23:48;97434.31;;;-3.41;81.33
4012;BME280;2020;48.682;9.024;2022-12-18T14:26:28;97436.00;;;-3.70;82.10
4012;BME280;2020;48.682;9.024;2022-12-18T14:28:59;97436.88;;;-3.71;82.68
4012;BME280;2020;48.682;9.024;2022-12-18T14:31:29;97431.94;;;-3.77;82.76
4012;BME280;2020;48.682;9.024;2022-12-18T14:33:55;97442.88;;;-4.05;84.34
4012;BME280;2020;48.682;9.024;2022-12-18T14:36:27;97437.00;;;-4.07;85.25
4012;BME280;2020;48.682;9.024;2022-12-18T14:38:54;97438.75;;;-4.09;84.67
4012;BME280;2020;48.682;9.024;2022-12-18T14:41:21;97435.50;;;-4.15;85.77
4012;BME280;2020;48.682;9.024;2022-12-18T14:43:49;97435.06;;;-4.31;85.88
4012;BME280;2020;48.682;9.024;2022-12-18T14:46:36;97435.59;;;-4.18;85.69
4012;BME280;2020;48.682;9.024;2022-12-18T14:49:14;97442.66;;;-4.29;85.52
4012;BME280;2020;48.682;9.024;2022-12-18T14:51:47;97436.13;;;-4.39;86.59
4012;BME280;2020;48.682;9.024;2022-12-18T14:54:18;97439.56;;;-4.41;86.51
4012;BME280;2020;48.682;9.024;2022-12-18T14:56:48;97439.47;;;-4.37;86.30
4012;BME280;2020;48.682;9.024;2022-12-18T14:59:17;97439.47;;;-4.37;87.03
4012;BME280;2020;48.682;9.024;2022-12-18T15:01:47;97436.28;;;-4.46;86.78
4012;BME280;2020;48.682;9.024;2022-12-18T15:04:42;97436.38;;;-4.49;87.89
4012;BME280;2020;48.682;9.024;2022-12-18T15:07:18;97442.75;;;-4.68;87.92
4012;BME280;2020;48.682;9.024;2022-12-18T15:10:21;97445.50;;;-4.78;89.05